Time;durP1;ratioP1;P1;durP2;ratioP2;P2;SDS_P1;SDS_P2;PMS_P1;PMS_P2;Temp;Humidity;BMP_temperature;BMP_pressure;BME280_temperature;BME280_humidity;BME280_pressure;Samples;Min_cycle;Max_cycle;Signal;HPM_P1;HPM_P2
2023/12/12 00:01:07;;;;;;;0.20;0.20;;;;;;;;;;4996929;28;20034;-79
2023/12/12 00:03:33;;;;;;;0.20;0.20;;;;;;;;;;4996257;28;20098;-78
2023/12/12 00:06:02;;;;;;;0.20;0.20;;;;;;;;;;4997975;28;20038;-79
2023/12/12 00:08:28;;;;;;;0.43;0.10;;;;;;;;;;4997964;28;20042;-79
2023/12/12 00:10:54;;;;;;;0.17;0.17;;;;;;;;;;5010378;28;20026;-80
2023/12/12 00:13:20;;;;;;;0.32;0.10;;;;;;;;;;5007425;28;20018;-79
2023/12/12 00:15:48;;;;;;;0.20;0.20;;;;;;;;;;5001182;28;20040;-80
2023/12/12 00:18:23;;;;;;;0.32;0.20;;;;;;;;;;5065378;23;20018;-77
2023/12/12 00:21:11;;;;;;;0.40;0.17;;;;;;;;;;4995047;28;20385;-79
2023/12/12 00:24:32;;;;;;;0.10;0.10;;;;;;;;;;5010992;28;20072;-78
2023/12/12 00:27:17;;;;;;;0.10;0.10;;;;;;;;;;4997073;28;20528;-79
2023/12/12 00:29:47;;;;;;;0.85;0.30;;;;;;;;;;4987606;28;20113;-79
2023/12/12 00:32:20;;;;;;;0.32;0.30;;;;;;;;;;4977817;28;20030;-80
2023/12/12 00:34:56;;;;;;;1.05;0.40;;;;;;;;;;4986893;28;20029;-80
2023/12/12 00:37:47;;;;;;;;;;;;;;;;;;;;;
2023/12/12 00:40:28;;;;;;;0.40;0.25;;;;;;;;;;5001448;28;20074;-80
2023/12/12 00:43:17;;;;;;;0.55;0.30;;;;;;;;;;5011250;28;20089;-78
2023/12/12 00:45:54;;;;;;;0.30;0.30;;;;;;;;;;4996006;28;20031;-80
2023/12/12 00:48:33;;;;;;;0.35;0.20;;;;;;;;;;4996856;28;20026;-79
2023/12/12 00:51:04;;;;;;;0.77;0.30;;;;;;;;;;4991599;28;20021;-80
2023/12/12 00:53:35;;;;;;;0.30;0.30;;;;;;;;;;5015582;28;20038;-79
2023/12/12 00:56:06;;;;;;;0.80;0.50;;;;;;;;;;5008906;28;20041;-79
2023/12/12 00:58:38;;;;;;;0.37;0.30;;;;;;;;;;5006353;28;20029;-79
2023/12/12 01:01:22;;;;;;;1.65;0.20;;;;;;;;;;5016795;28;20057;-78
2023/12/12 01:03:57;;;;;;;0.28;0.28;;;;;;;;;;5005173;28;20030;-79
2023/12/12 01:06:43;;;;;;;1.65;0.43;;;;;;;;;;4994663;28;20031;-77
2023/12/12 01:09:22;;;;;;;0.30;0.30;;;;;;;;;;5004193;28;20045;-80
2023/12/12 01:12:12;;;;;;;0.22;0.20;;;;;;;;;;5008519;28;20287;-80
2023/12/12 01:14:45;;;;;;;0.43;0.20;;;;;;;;;;5013463;28;20081;-80
2023/12/12 01:17:47;;;;;;;0.20;0.17;;;;;;;;;;5013582;28;20026;-79
2023/12/12 01:20:25;;;;;;;0.80;0.20;;;;;;;;;;5013078;28;20030;-78
2023/12/12 01:23:24;;;;;;;;;;;;;;;;;;;;;
2023/12/12 01:28:56;;;;;;;0.20;0.20;;;;;;;;;;4942721;28;20499;-81
2023/12/12 01:31:36;;;;;;;0.93;0.43;;;;;;;;;;5012368;28;20073;-78
2023/12/12 01:40:43;;;;;;;0.35;0.35;;;;;;;;;;4993966;28;20085;-79
2023/12/12 01:43:44;;;;;;;0.30;0.30;;;;;;;;;;5006507;28;20026;-78
2023/12/12 01:47:00;;;;;;;1.20;1.10;;;;;;;;;;5013188;28;20021;-78
2023/12/12 01:49:52;;;;;;;0.77;0.40;;;;;;;;;;5002144;28;20026;-80
2023/12/12 01:52:34;;;;;;;;;;;;;;;;;;;;;
2023/12/12 01:55:19;;;;;;;1.38;0.50;;;;;;;;;;5001126;28;20117;-80
2023/12/12 01:57:56;;;;;;;0.55;0.43;;;;;;;;;;5004901;28;20034;-80
2023/12/12 02:00:35;;;;;;;;;;;;;;;;;;;;;
2023/12/12 02:03:12;;;;;;;;;;;;;;;;;;;;;
2023/12/12 02:05:47;;;;;;;0.63;0.60;;;;;;;;;;5022252;28;20134;-78
2023/12/12 02:08:25;;;;;;;0.60;0.30;;;;;;;;;;5028321;28;20059;-79
2023/12/12 02:10:54;;;;;;;1.65;0.35;;;;;;;;;;5012006;28;20096;-80
2023/12/12 02:13:25;;;;;;;1.30;0.40;;;;;;;;;;5014042;28;20029;-80
2023/12/12 02:16:16;;;;;;;0.50;0.40;;;;;;;;;;5039311;28;20060;-80
2023/12/12 02:19:01;;;;;;;0.85;0.30;;;;;;;;;;5039549;28;20029;-80
2023/12/12 02:21:45;;;;;;;0.95;0.50;;;;;;;;;;5035301;28;20097;-80
2023/12/12 02:24:19;;;;;;;0.40;0.20;;;;;;;;;;5027014;28;20136;-80
2023/12/12 02:26:56;;;;;;;0.82;0.20;;;;;;;;;;5025774;28;20052;-80
2023/12/12 02:29:51;;;;;;;0.40;0.30;;;;;;;;;;5018310;28;20160;-80
2023/12/12 02:32:37;;;;;;;0.40;0.22;;;;;;;;;;5018477;28;20048;-79
2023/12/12 02:35:35;;;;;;;0.40;0.10;;;;;;;;;;5033451;28;20017;-80
2023/12/12 02:38:13;;;;;;;0.20;0.20;;;;;;;;;;5034870;28;20134;-77
2023/12/12 02:40:54;;;;;;;0.40;0.15;;;;;;;;;;5055402;28;20044;-77
2023/12/12 02:43:28;;;;;;;0.93;0.30;;;;;;;;;;5048269;28;20037;-78
2023/12/12 02:46:16;;;;;;;0.40;0.20;;;;;;;;;;5016575;28;20041;-78
2023/12/12 02:48:57;;;;;;;;;;;;;;;;;;;;;
2023/12/12 02:51:28;;;;;;;0.15;0.15;;;;;;;;;;5037653;28;20092;-79
2023/12/12 02:54:08;;;;;;;0.65;0.38;;;;;;;;;;5037700;28;20448;-79
2023/12/12 02:56:54;;;;;;;0.30;0.20;;;;;;;;;;5037315;28;20052;-78
2023/12/12 02:59:38;;;;;;;0.20;0.20;;;;;;;;;;5037082;28;20044;-78
2023/12/12 03:02:09;;;;;;;0.17;0.17;;;;;;;;;;5017789;28;20117;-78
2023/12/12 03:04:48;;;;;;;0.20;0.20;;;;;;;;;;5018593;28;20125;-79
2023/12/12 03:07:19;;;;;;;0.20;0.20;;;;;;;;;;5018790;28;20026;-79
2023/12/12 03:09:50;;;;;;;0.30;0.20;;;;;;;;;;4997154;28;20026;-78
2023/12/12 03:12:32;;;;;;;;;;;;;;;;;;;;;
2023/12/12 03:15:10;;;;;;;1.10;0.32;;;;;;;;;;5024830;28;20113;-80
2023/12/12 03:18:16;;;;;;;0.52;0.20;;;;;;;;;;5036213;28;20038;-79
2023/12/12 03:23:38;;;;;;;;;;;;;;;;;;;;;
2023/12/12 03:26:25;;;;;;;0.30;0.30;;;;;;;;;;5020192;28;20133;-79
2023/12/12 03:28:56;;;;;;;0.47;0.20;;;;;;;;;;5017071;28;20026;-79
2023/12/12 03:31:33;;;;;;;0.32;0.20;;;;;;;;;;5022784;28;20081;-79
2023/12/12 03:34:10;;;;;;;0.30;0.20;;;;;;;;;;5023370;28;20457;-79
2023/12/12 03:36:42;;;;;;;0.28;0.10;;;;;;;;;;5019460;28;20042;-79
2023/12/12 03:39:10;;;;;;;;;;;;;;;;;;5019773;28;20057;-81
2023/12/12 03:44:53;;;;;;;;;;;;;;;;;;;;;
2023/12/12 03:50:25;;;;;;;0.30;0.30;;;;;;;;;;5037468;28;20029;-79
2023/12/12 03:53:00;;;;;;;0.10;0.10;;;;;;;;;;5022372;28;20028;-80
2023/12/12 03:55:32;;;;;;;0.68;0.20;;;;;;;;;;5031340;28;20095;-78
2023/12/12 03:58:23;;;;;;;0.20;0.10;;;;;;;;;;5015531;28;20030;-79
2023/12/12 04:01:10;;;;;;;0.22;0.20;;;;;;;;;;5013886;28;20042;-78
2023/12/12 04:03:55;;;;;;;0.20;0.20;;;;;;;;;;5015407;28;20037;-78
2023/12/12 04:06:56;;;;;;;0.17;0.17;;;;;;;;;;5031085;28;20424;-79
2023/12/12 04:09:43;;;;;;;0.10;0.10;;;;;;;;;;5037111;28;20038;-78
2023/12/12 04:12:09;;;;;;;0.20;0.10;;;;;;;;;;5023014;28;20083;-79
2023/12/12 04:14:37;;;;;;;0.20;0.20;;;;;;;;;;5015066;28;20030;-79
2023/12/12 04:17:11;;;;;;;0.20;0.20;;;;;;;;;;5015596;28;20048;-80
2023/12/12 04:19:40;;;;;;;2.17;0.30;;;;;;;;;;5035119;28;20068;-79
2023/12/12 04:22:07;;;;;;;0.82;0.15;;;;;;;;;;5026682;28;20519;-78
2023/12/12 04:25:02;;;;;;;;;;;;;;;;;;;;;
2023/12/12 04:27:37;;;;;;;0.10;0.10;;;;;;;;;;5028472;28;20121;-80
2023/12/12 04:30:07;;;;;;;0.38;0.38;;;;;;;;;;5030375;28;20396;-79
2023/12/12 04:32:33;;;;;;;0.28;0.28;;;;;;;;;;5036449;28;20022;-79
2023/12/12 04:35:00;;;;;;;0.25;0.17;;;;;;;;;;5024744;28;20124;-77
2023/12/12 04:37:27;;;;;;;0.40;0.20;;;;;;;;;;5032395;28;20101;-77
2023/12/12 04:39:53;;;;;;;0.32;0.20;;;;;;;;;;5014503;28;20018;-77
2023/12/12 04:42:19;;;;;;;0.40;0.30;;;;;;;;;;5014914;28;20037;-80
2023/12/12 04:44:45;;;;;;;0.50;0.40;;;;;;;;;;5016610;28;20120;-78
2023/12/12 04:47:13;;;;;;;0.30;0.30;;;;;;;;;;5017180;28;20026;-80
2023/12/12 04:49:39;;;;;;;0.65;0.65;;;;;;;;;;5017586;28;20036;-79
2023/12/12 04:52:05;;;;;;;0.30;0.30;;;;;;;;;;5034964;28;20033;-80
2023/12/12 04:54:31;;;;;;;0.35;0.35;;;;;;;;;;5024033;28;20428;-80
2023/12/12 04:56:58;;;;;;;0.30;0.30;;;;;;;;;;5013642;28;20022;-80
2023/12/12 04:59:24;;;;;;;0.32;0.30;;;;;;;;;;5014664;28;20025;-80
2023/12/12 05:01:50;;;;;;;0.65;0.40;;;;;;;;;;5017298;28;20521;-79
2023/12/12 05:04:16;;;;;;;0.30;0.30;;;;;;;;;;5032343;28;20025;-79
2023/12/12 05:06:43;;;;;;;1.15;0.40;;;;;;;;;;5015773;28;20026;-79
2023/12/12 05:09:09;;;;;;;0.32;0.32;;;;;;;;;;5015570;28;20018;-80
2023/12/12 05:11:36;;;;;;;0.28;0.25;;;;;;;;;;5022414;28;20117;-80
2023/12/12 05:14:07;;;;;;;0.20;0.20;;;;;;;;;;5018394;28;20018;-81
2023/12/12 05:16:33;;;;;;;0.25;0.25;;;;;;;;;;5018583;28;20022;-80
2023/12/12 05:18:59;;;;;;;0.30;0.30;;;;;;;;;;5027239;28;20129;-80
2023/12/12 05:21:26;;;;;;;0.30;0.30;;;;;;;;;;5017793;28;20097;-79
2023/12/12 05:23:52;;;;;;;0.10;0.10;;;;;;;;;;5026923;28;20093;-79
2023/12/12 05:26:18;;;;;;;0.30;0.20;;;;;;;;;;5035482;28;20037;-79
2023/12/12 05:28:47;;;;;;;0.20;0.20;;;;;;;;;;5024746;28;20034;-79
2023/12/12 05:31:13;;;;;;;0.20;0.20;;;;;;;;;;5014924;28;20033;-79
2023/12/12 05:33:40;;;;;;;0.20;0.20;;;;;;;;;;5016265;28;20096;-79
2023/12/12 05:36:06;;;;;;;0.20;0.20;;;;;;;;;;5014785;28;20025;-79
2023/12/12 05:38:32;;;;;;;0.30;0.20;;;;;;;;;;5015487;28;20025;-78
2023/12/12 05:40:58;;;;;;;0.05;0.05;;;;;;;;;;5027066;28;20484;-79
2023/12/12 05:43:24;;;;;;;0.10;0.10;;;;;;;;;;5034123;28;20081;-79
2023/12/12 05:45:51;;;;;;;0.10;0.10;;;;;;;;;;5023452;28;20097;-78
2023/12/12 05:48:17;;;;;;;0.10;0.10;;;;;;;;;;5018029;28;20029;-78
2023/12/12 05:50:43;;;;;;;0.10;0.10;;;;;;;;;;5016244;28;20029;-78
2023/12/12 05:53:09;;;;;;;0.10;0.10;;;;;;;;;;5019241;28;20448;-78
2023/12/12 05:55:35;;;;;;;0.20;0.20;;;;;;;;;;5017019;28;20030;-78
2023/12/12 05:58:01;;;;;;;0.17;0.10;;;;;;;;;;5024706;28;20029;-79
2023/12/12 06:00:30;;;;;;;0.22;0.22;;;;;;;;;;5020037;28;20127;-80
2023/12/12 06:02:58;;;;;;;0.20;0.20;;;;;;;;;;5020254;28;20045;-80
2023/12/12 06:05:24;;;;;;;0.10;0.10;;;;;;;;;;5020553;28;20041;-79
2023/12/12 06:07:50;;;;;;;0.60;0.20;;;;;;;;;;5025527;28;20077;-79
2023/12/12 06:10:18;;;;;;;0.28;0.20;;;;;;;;;;5037366;28;20030;-80
2023/12/12 06:12:44;;;;;;;0.10;0.10;;;;;;;;;;5040364;28;20014;-78
2023/12/12 06:15:10;;;;;;;0.20;0.13;;;;;;;;;;5036126;28;20111;-78
2023/12/12 06:17:36;;;;;;;0.20;0.20;;;;;;;;;;5029691;28;20040;-80
2023/12/12 06:20:03;;;;;;;0.10;0.10;;;;;;;;;;5035673;28;20026;-80
2023/12/12 06:22:29;;;;;;;0.10;0.10;;;;;;;;;;5034962;28;20026;-78
2023/12/12 06:24:55;;;;;;;0.15;0.10;;;;;;;;;;5021070;28;20503;-80
2023/12/12 06:27:23;;;;;;;0.10;0.10;;;;;;;;;;5020229;28;20087;-80
2023/12/12 06:29:50;;;;;;;0.30;0.20;;;;;;;;;;5010804;28;20496;-80
2023/12/12 06:32:16;;;;;;;0.20;0.20;;;;;;;;;;5018664;28;20034;-80
2023/12/12 06:34:46;;;;;;;0.08;0.08;;;;;;;;;;5020742;28;20018;-80
2023/12/12 06:37:12;;;;;;;0.55;0.20;;;;;;;;;;5020568;28;20030;-80
2023/12/12 06:39:41;;;;;;;0.10;0.10;;;;;;;;;;5020022;28;20041;-79
2023/12/12 06:42:07;;;;;;;0.20;0.20;;;;;;;;;;5034137;28;20098;-79
2023/12/12 06:44:34;;;;;;;0.10;0.10;;;;;;;;;;5020476;28;20109;-79
2023/12/12 06:47:03;;;;;;;0.10;0.10;;;;;;;;;;5025931;28;20071;-80
2023/12/12 06:49:29;;;;;;;0.35;0.30;;;;;;;;;;5019531;28;20018;-80
2023/12/12 06:51:55;;;;;;;0.30;0.30;;;;;;;;;;5024459;28;20018;-81
2023/12/12 06:54:21;;;;;;;0.40;0.30;;;;;;;;;;5024459;28;20061;-80
2023/12/12 06:56:47;;;;;;;1.65;0.20;;;;;;;;;;5027409;28;20395;-80
2023/12/12 06:59:14;;;;;;;0.30;0.30;;;;;;;;;;5017891;28;20049;-80
2023/12/12 07:01:40;;;;;;;0.30;0.20;;;;;;;;;;5019616;28;20057;-79
2023/12/12 07:04:06;;;;;;;0.20;0.20;;;;;;;;;;5020275;28;20045;-79
2023/12/12 07:06:32;;;;;;;0.43;0.40;;;;;;;;;;5022372;28;20034;-79
2023/12/12 07:08:59;;;;;;;0.20;0.20;;;;;;;;;;5020993;28;20026;-79
2023/12/12 07:11:25;;;;;;;0.45;0.20;;;;;;;;;;5019329;28;20022;-80
2023/12/12 07:13:51;;;;;;;0.43;0.35;;;;;;;;;;5038207;28;20025;-80
2023/12/12 07:16:18;;;;;;;0.63;0.30;;;;;;;;;;5030332;28;20030;-79
2023/12/12 07:18:44;;;;;;;0.40;0.13;;;;;;;;;;5019451;28;20026;-80
2023/12/12 07:21:10;;;;;;;0.32;0.30;;;;;;;;;;5018339;28;20033;-79
2023/12/12 07:23:36;;;;;;;0.13;0.13;;;;;;;;;;5018927;28;20026;-79
2023/12/12 07:26:02;;;;;;;0.28;0.25;;;;;;;;;;5028253;28;20017;-78
2023/12/12 07:28:28;;;;;;;0.10;0.10;;;;;;;;;;5026112;28;20029;-79
2023/12/12 07:30:55;;;;;;;0.25;0.20;;;;;;;;;;5020023;28;20045;-79
2023/12/12 07:33:21;;;;;;;0.25;0.25;;;;;;;;;;5019956;28;20455;-80
2023/12/12 07:35:50;;;;;;;0.38;0.30;;;;;;;;;;5025368;28;20030;-79
2023/12/12 07:38:16;;;;;;;0.47;0.38;;;;;;;;;;5025290;28;20040;-79
2023/12/12 07:40:43;;;;;;;2.42;0.50;;;;;;;;;;5026592;28;20449;-80
2023/12/12 07:43:09;;;;;;;0.65;0.28;;;;;;;;;;5041105;28;20060;-80
2023/12/12 07:45:36;;;;;;;0.52;0.30;;;;;;;;;;5038534;28;20064;-79
2023/12/12 07:48:03;;;;;;;0.35;0.30;;;;;;;;;;5026957;28;20079;-80
2023/12/12 07:50:29;;;;;;;0.70;0.60;;;;;;;;;;5031759;28;20033;-80
2023/12/12 07:52:55;;;;;;;0.90;0.40;;;;;;;;;;5045484;28;20029;-79
2023/12/12 07:55:23;;;;;;;0.60;0.52;;;;;;;;;;5035589;28;20030;-80
2023/12/12 07:57:50;;;;;;;0.70;0.43;;;;;;;;;;5020588;28;20036;-80
2023/12/12 08:00:16;;;;;;;0.25;0.25;;;;;;;;;;5020450;28;20053;-80
2023/12/12 08:02:43;;;;;;;1.17;0.63;;;;;;;;;;5025643;28;20049;-79
2023/12/12 08:05:09;;;;;;;0.40;0.35;;;;;;;;;;5017041;28;20041;-80
2023/12/12 08:07:35;;;;;;;0.30;0.30;;;;;;;;;;5017145;28;20057;-80
2023/12/12 08:10:01;;;;;;;0.70;0.60;;;;;;;;;;5017309;28;20045;-79
2023/12/12 08:12:27;;;;;;;0.75;0.55;;;;;;;;;;5048376;28;20026;-78
2023/12/12 08:14:55;;;;;;;0.50;0.50;;;;;;;;;;5027405;28;20425;-81
2023/12/12 08:17:21;;;;;;;0.95;0.60;;;;;;;;;;5026843;28;20068;-80
2023/12/12 08:19:47;;;;;;;1.40;0.55;;;;;;;;;;5022148;28;20105;-80
2023/12/12 08:22:13;;;;;;;0.40;0.40;;;;;;;;;;5028253;28;20043;-81
2023/12/12 08:24:39;;;;;;;0.85;0.55;;;;;;;;;;5009375;28;20037;-79
2023/12/12 08:27:07;;;;;;;0.82;0.32;;;;;;;;;;5031159;28;20097;-81
2023/12/12 08:29:33;;;;;;;0.43;0.40;;;;;;;;;;5020872;28;20034;-80
2023/12/12 08:31:59;;;;;;;0.40;0.40;;;;;;;;;;5027715;28;20040;-79
2023/12/12 08:34:25;;;;;;;0.50;0.32;;;;;;;;;;5020215;28;20216;-79
2023/12/12 08:36:51;;;;;;;0.45;0.30;;;;;;;;;;5012746;28;20042;-80
2023/12/12 08:39:18;;;;;;;0.75;0.20;;;;;;;;;;5022196;28;20030;-80
2023/12/12 08:41:44;;;;;;;0.75;0.38;;;;;;;;;;5021203;28;20075;-79
2023/12/12 08:44:10;;;;;;;0.30;0.22;;;;;;;;;;5023755;28;20041;-79
2023/12/12 08:46:36;;;;;;;0.32;0.32;;;;;;;;;;5027591;28;20088;-81
2023/12/12 08:49:03;;;;;;;0.55;0.40;;;;;;;;;;5021654;28;20018;-79
2023/12/12 08:51:33;;;;;;;0.43;0.30;;;;;;;;;;5016035;28;20025;-79
2023/12/12 08:54:01;;;;;;;0.20;0.20;;;;;;;;;;5018531;28;20248;-80
2023/12/12 08:56:27;;;;;;;0.43;0.32;;;;;;;;;;5018364;28;20084;-78
2023/12/12 08:58:54;;;;;;;0.10;0.10;;;;;;;;;;5022524;28;20025;-80
2023/12/12 09:01:20;;;;;;;0.20;0.20;;;;;;;;;;5022263;28;20149;-80
2023/12/12 09:03:47;;;;;;;0.20;0.20;;;;;;;;;;5018578;28;20377;-80
2023/12/12 09:06:13;;;;;;;0.10;0.10;;;;;;;;;;5037121;28;20037;-79
2023/12/12 09:08:42;;;;;;;0.52;0.20;;;;;;;;;;5018724;28;20515;-79
2023/12/12 09:11:09;;;;;;;0.55;0.30;;;;;;;;;;5020360;28;20117;-80
2023/12/12 09:13:36;;;;;;;0.22;0.20;;;;;;;;;;5016521;28;20032;-80
2023/12/12 09:16:02;;;;;;;0.68;0.32;;;;;;;;;;5011843;28;20027;-79
2023/12/12 09:18:28;;;;;;;0.10;0.10;;;;;;;;;;4997715;28;20033;-80
2023/12/12 09:20:54;;;;;;;0.50;0.30;;;;;;;;;;5013155;28;20026;-80
2023/12/12 09:23:20;;;;;;;0.20;0.20;;;;;;;;;;5029938;28;20041;-79
2023/12/12 09:25:46;;;;;;;0.30;0.30;;;;;;;;;;5032382;28;20113;-79
2023/12/12 09:28:13;;;;;;;0.50;0.43;;;;;;;;;;5022696;28;20014;-80
2023/12/12 09:30:39;;;;;;;0.20;0.20;;;;;;;;;;5024596;28;20028;-79
2023/12/12 09:33:05;;;;;;;0.13;0.13;;;;;;;;;;5042318;28;20014;-78
2023/12/12 09:35:31;;;;;;;0.50;0.20;;;;;;;;;;5038281;28;20076;-78
2023/12/12 09:37:57;;;;;;;0.40;0.40;;;;;;;;;;5033852;28;20022;-79
2023/12/12 09:40:23;;;;;;;0.30;0.22;;;;;;;;;;5027853;28;20048;-79
2023/12/12 09:42:53;;;;;;;0.30;0.30;;;;;;;;;;5031459;28;20103;-79
2023/12/12 09:45:25;;;;;;;0.30;0.30;;;;;;;;;;5031938;28;20026;-78
2023/12/12 09:47:51;;;;;;;0.28;0.28;;;;;;;;;;5026555;28;20407;-80
2023/12/12 09:50:18;;;;;;;0.30;0.30;;;;;;;;;;5030384;28;20030;-79
2023/12/12 09:52:48;;;;;;;0.20;0.20;;;;;;;;;;5033286;28;20041;-80
2023/12/12 09:55:14;;;;;;;0.30;0.30;;;;;;;;;;5017388;28;20091;-80
2023/12/12 09:57:40;;;;;;;0.20;0.20;;;;;;;;;;5030484;28;20040;-79
2023/12/12 10:00:08;;;;;;;0.20;0.20;;;;;;;;;;5026169;28;20483;-79
2023/12/12 10:02:35;;;;;;;0.40;0.20;;;;;;;;;;5019647;28;20055;-79
2023/12/12 10:05:03;;;;;;;0.32;0.32;;;;;;;;;;5022450;28;20036;-80
2023/12/12 10:07:31;;;;;;;0.45;0.35;;;;;;;;;;5029875;28;20080;-79
2023/12/12 10:09:57;;;;;;;0.75;0.60;;;;;;;;;;5030246;28;20041;-78
2023/12/12 10:12:23;;;;;;;0.40;0.40;;;;;;;;;;5034969;28;20113;-79
2023/12/12 10:14:49;;;;;;;0.30;0.30;;;;;;;;;;5031092;28;20497;-79
2023/12/12 10:17:15;;;;;;;0.93;0.45;;;;;;;;;;5032686;28;20049;-80
2023/12/12 10:19:42;;;;;;;0.73;0.57;;;;;;;;;;5023576;28;20033;-79
2023/12/12 10:22:08;;;;;;;0.60;0.40;;;;;;;;;;5021612;28;20030;-78
2023/12/12 10:24:35;;;;;;;0.95;0.68;;;;;;;;;;5025085;28;20026;-81
2023/12/12 10:27:02;;;;;;;0.93;0.45;;;;;;;;;;5029726;28;20026;-80
2023/12/12 10:29:28;;;;;;;1.00;0.50;;;;;;;;;;5029300;28;20022;-81
2023/12/12 10:31:54;;;;;;;0.65;0.50;;;;;;;;;;5027643;28;20018;-79
2023/12/12 10:34:27;;;;;;;0.40;0.40;;;;;;;;;;5007641;28;20105;-81
2023/12/12 10:36:53;;;;;;;0.60;0.43;;;;;;;;;;5038987;28;20022;-79
2023/12/12 10:39:19;;;;;;;0.60;0.38;;;;;;;;;;5020492;28;20237;-79
2023/12/12 10:41:55;;;;;;;1.13;0.60;;;;;;;;;;5025755;28;20118;-78
2023/12/12 10:44:22;;;;;;;0.35;0.35;;;;;;;;;;5022424;28;20165;-79
2023/12/12 10:46:54;;;;;;;1.60;0.75;;;;;;;;;;5041742;28;20026;-80
2023/12/12 10:49:27;;;;;;;1.17;0.40;;;;;;;;;;5040602;28;20046;-80
2023/12/12 10:51:53;;;;;;;0.43;0.38;;;;;;;;;;5022529;28;20061;-80
2023/12/12 10:54:24;;;;;;;0.70;0.50;;;;;;;;;;5015191;28;20041;-79
2023/12/12 10:56:52;;;;;;;0.28;0.28;;;;;;;;;;5045179;28;20108;-79
2023/12/12 10:59:18;;;;;;;0.80;0.45;;;;;;;;;;5024346;28;20030;-80
2023/12/12 11:01:47;;;;;;;0.80;0.57;;;;;;;;;;5022296;28;20044;-79
2023/12/12 11:04:17;;;;;;;0.75;0.57;;;;;;;;;;5024306;28;20095;-79
2023/12/12 11:06:43;;;;;;;0.75;0.40;;;;;;;;;;5045002;28;20022;-77
2023/12/12 11:09:10;;;;;;;0.40;0.38;;;;;;;;;;5047410;28;20026;-78
2023/12/12 11:11:39;;;;;;;2.38;0.60;;;;;;;;;;5031301;28;20024;-77
2023/12/12 11:14:05;;;;;;;0.57;0.47;;;;;;;;;;5036678;28;20018;-79
2023/12/12 11:16:32;;;;;;;0.55;0.50;;;;;;;;;;5041085;28;20029;-79
2023/12/12 11:19:00;;;;;;;0.95;0.40;;;;;;;;;;5015185;28;20457;-79
2023/12/12 11:21:45;;;;;;;0.45;0.40;;;;;;;;;;5020764;28;20026;-80
2023/12/12 11:24:12;;;;;;;0.55;0.40;;;;;;;;;;5009741;28;20045;-81
2023/12/12 11:26:38;;;;;;;0.20;0.20;;;;;;;;;;5025715;28;20033;-80
2023/12/12 11:29:06;;;;;;;1.13;0.40;;;;;;;;;;5020061;28;20010;-79
2023/12/12 11:31:35;;;;;;;0.50;0.50;;;;;;;;;;5027791;28;20025;-80
2023/12/12 11:34:08;;;;;;;0.30;0.30;;;;;;;;;;5026016;28;20036;-78
2023/12/12 11:36:53;;;;;;;0.55;0.40;;;;;;;;;;5014392;28;20045;-79
2023/12/12 11:39:39;;;;;;;0.30;0.30;;;;;;;;;;5020373;28;20054;-79
2023/12/12 11:42:08;;;;;;;0.40;0.40;;;;;;;;;;4999376;28;20413;-80
2023/12/12 11:44:41;;;;;;;0.60;0.50;;;;;;;;;;5012771;28;20033;-79
2023/12/12 11:47:10;;;;;;;0.40;0.40;;;;;;;;;;5020897;28;20052;-81
2023/12/12 11:49:36;;;;;;;0.40;0.40;;;;;;;;;;5021426;28;20101;-79
2023/12/12 11:52:03;;;;;;;0.80;0.45;;;;;;;;;;5036643;28;20041;-79
2023/12/12 11:54:29;;;;;;;0.40;0.40;;;;;;;;;;5038926;28;20041;-78
2023/12/12 11:56:57;;;;;;;0.77;0.40;;;;;;;;;;5044232;28;20032;-77
2023/12/12 11:59:23;;;;;;;0.38;0.30;;;;;;;;;;5035343;28;20049;-79
2023/12/12 12:01:50;;;;;;;0.40;0.40;;;;;;;;;;5028719;28;20093;-77
2023/12/12 12:04:16;;;;;;;0.75;0.50;;;;;;;;;;5030498;28;20006;-78
2023/12/12 12:06:43;;;;;;;0.60;0.60;;;;;;;;;;5035515;28;20026;-78
2023/12/12 12:09:09;;;;;;;0.75;0.60;;;;;;;;;;5035305;28;20041;-78
2023/12/12 12:11:44;;;;;;;0.88;0.50;;;;;;;;;;5026272;28;20014;-78
2023/12/12 12:14:16;;;;;;;0.47;0.47;;;;;;;;;;5029123;28;20089;-78
2023/12/12 12:16:42;;;;;;;0.57;0.45;;;;;;;;;;5020201;28;20052;-81
2023/12/12 12:19:37;;;;;;;0.68;0.65;;;;;;;;;;5020363;28;20014;-79
2023/12/12 12:22:07;;;;;;;1.55;0.98;;;;;;;;;;4997168;28;20092;-80
2023/12/12 12:24:40;;;;;;;0.73;0.57;;;;;;;;;;5020405;28;20076;-80
2023/12/12 12:27:07;;;;;;;1.35;0.80;;;;;;;;;;5020641;28;20056;-79
2023/12/12 12:29:33;;;;;;;1.48;0.70;;;;;;;;;;5019211;28;20026;-78
2023/12/12 12:32:16;;;;;;;1.38;1.00;;;;;;;;;;5019823;28;20022;-79
2023/12/12 12:34:42;;;;;;;1.13;0.90;;;;;;;;;;5027612;28;20022;-80
2023/12/12 12:37:28;;;;;;;0.77;0.75;;;;;;;;;;5021933;28;20029;-79
2023/12/12 12:39:54;;;;;;;1.27;0.93;;;;;;;;;;5011057;28;20034;-80
2023/12/12 12:42:20;;;;;;;1.83;0.88;;;;;;;;;;5022434;28;20030;-81
2023/12/12 12:44:46;;;;;;;0.98;0.85;;;;;;;;;;5018650;28;20117;-79
2023/12/12 12:47:12;;;;;;;1.05;0.88;;;;;;;;;;5030154;28;20025;-79
2023/12/12 12:49:39;;;;;;;2.47;0.60;;;;;;;;;;5019079;28;20072;-79
2023/12/12 12:52:05;;;;;;;2.10;0.98;;;;;;;;;;5019175;28;20481;-80
2023/12/12 12:54:32;;;;;;;1.92;0.77;;;;;;;;;;5022667;28;20117;-80
2023/12/12 12:56:58;;;;;;;1.23;0.90;;;;;;;;;;5029030;28;20021;-81
2023/12/12 12:59:26;;;;;;;0.98;0.90;;;;;;;;;;5030633;28;20026;-79
2023/12/12 13:01:52;;;;;;;1.00;0.85;;;;;;;;;;5035518;28;20034;-79
2023/12/12 13:04:18;;;;;;;1.15;1.00;;;;;;;;;;5025228;28;20113;-79
2023/12/12 13:06:44;;;;;;;1.77;1.00;;;;;;;;;;5025901;28;20500;-79
2023/12/12 13:09:17;;;;;;;1.30;0.77;;;;;;;;;;5030666;28;20025;-79
2023/12/12 13:11:44;;;;;;;1.60;0.70;;;;;;;;;;5036531;28;20025;-79
2023/12/12 13:14:10;;;;;;;0.77;0.68;;;;;;;;;;5033385;28;20413;-79
2023/12/12 13:16:36;;;;;;;1.63;0.68;;;;;;;;;;5037057;28;20698;-80
2023/12/12 13:19:02;;;;;;;1.33;0.90;;;;;;;;;;5026431;28;20025;-80
2023/12/12 13:21:28;;;;;;;2.13;0.82;;;;;;;;;;5028070;28;20057;-79
2023/12/12 13:23:55;;;;;;;1.55;0.90;;;;;;;;;;5026349;28;20049;-80
2023/12/12 13:26:24;;;;;;;0.55;0.55;;;;;;;;;;5025664;28;20461;-80
2023/12/12 13:28:52;;;;;;;1.08;0.73;;;;;;;;;;5023788;28;20084;-80
2023/12/12 13:31:20;;;;;;;2.28;0.70;;;;;;;;;;5026741;28;20792;-80
2023/12/12 13:33:46;;;;;;;0.50;0.50;;;;;;;;;;5026742;28;20018;-80
2023/12/12 13:36:13;;;;;;;0.82;0.57;;;;;;;;;;5029606;28;20119;-80
2023/12/12 13:38:41;;;;;;;1.80;0.73;;;;;;;;;;5024259;28;20365;-80
2023/12/12 13:41:07;;;;;;;1.00;0.63;;;;;;;;;;5026953;28;20022;-79
2023/12/12 13:43:33;;;;;;;0.55;0.50;;;;;;;;;;5028842;28;20457;-79
2023/12/12 13:45:59;;;;;;;0.95;0.32;;;;;;;;;;5031737;28;20049;-79
2023/12/12 13:48:26;;;;;;;0.77;0.60;;;;;;;;;;5022961;28;20018;-79
2023/12/12 13:50:52;;;;;;;0.73;0.60;;;;;;;;;;5025612;28;20018;-81
2023/12/12 13:53:18;;;;;;;1.48;0.60;;;;;;;;;;5024886;28;20029;-80
2023/12/12 13:55:44;;;;;;;0.55;0.55;;;;;;;;;;5024521;28;20432;-79
2023/12/12 13:58:10;;;;;;;0.40;0.40;;;;;;;;;;5035441;28;20029;-79
2023/12/12 14:00:36;;;;;;;0.77;0.57;;;;;;;;;;5035997;28;20052;-79
2023/12/12 14:03:02;;;;;;;0.60;0.60;;;;;;;;;;5022982;28;20030;-80
2023/12/12 14:05:28;;;;;;;0.50;0.50;;;;;;;;;;5022592;28;20121;-81
2023/12/12 14:07:58;;;;;;;0.40;0.40;;;;;;;;;;5018948;28;20662;-79
2023/12/12 14:10:24;;;;;;;0.40;0.40;;;;;;;;;;5029715;28;20136;-81
2023/12/12 14:12:51;;;;;;;0.38;0.38;;;;;;;;;;5024767;28;20054;-78
2023/12/12 14:15:17;;;;;;;0.70;0.40;;;;;;;;;;5025990;28;20332;-79
2023/12/12 14:17:46;;;;;;;0.32;0.32;;;;;;;;;;5021553;28;20049;-81
2023/12/12 14:20:16;;;;;;;0.40;0.40;;;;;;;;;;5021920;28;20022;-79
2023/12/12 14:22:42;;;;;;;0.28;0.28;;;;;;;;;;5022194;28;20053;-78
2023/12/12 14:25:08;;;;;;;0.22;0.22;;;;;;;;;;5023327;28;20053;-80
2023/12/12 14:27:34;;;;;;;0.32;0.32;;;;;;;;;;5022091;28;20074;-80
2023/12/12 14:30:00;;;;;;;0.30;0.30;;;;;;;;;;5013974;28;20026;-81
2023/12/12 14:32:27;;;;;;;0.40;0.32;;;;;;;;;;5026145;28;20074;-80
2023/12/12 14:34:53;;;;;;;0.20;0.20;;;;;;;;;;5029260;28;20045;-80
2023/12/12 14:37:20;;;;;;;0.40;0.40;;;;;;;;;;5021980;28;20034;-79
2023/12/12 14:39:46;;;;;;;0.50;0.40;;;;;;;;;;5021469;28;20032;-79
2023/12/12 14:42:12;;;;;;;0.82;0.52;;;;;;;;;;5024362;28;20042;-79
2023/12/12 14:44:38;;;;;;;0.10;0.10;;;;;;;;;;5021974;28;20030;-78
2023/12/12 14:47:04;;;;;;;0.43;0.35;;;;;;;;;;5027484;28;20036;-79
2023/12/12 14:49:31;;;;;;;0.32;0.30;;;;;;;;;;5021103;28;20036;-80
2023/12/12 14:51:58;;;;;;;0.20;0.20;;;;;;;;;;5021006;28;20021;-80
2023/12/12 14:54:24;;;;;;;0.65;0.30;;;;;;;;;;5021146;28;20042;-78
2023/12/12 14:56:50;;;;;;;0.20;0.20;;;;;;;;;;5030749;28;20025;-79
2023/12/12 14:59:17;;;;;;;0.40;0.40;;;;;;;;;;5025461;28;20022;-78
2023/12/12 15:01:43;;;;;;;0.20;0.20;;;;;;;;;;5026449;28;20030;-79
2023/12/12 15:04:09;;;;;;;0.77;0.30;;;;;;;;;;5025014;28;20022;-80
2023/12/12 15:06:35;;;;;;;0.28;0.28;;;;;;;;;;5021800;28;20030;-79
2023/12/12 15:09:03;;;;;;;0.35;0.35;;;;;;;;;;5032523;28;20018;-80
2023/12/12 15:11:31;;;;;;;0.20;0.20;;;;;;;;;;5040842;28;20032;-78
2023/12/12 15:13:57;;;;;;;0.43;0.40;;;;;;;;;;5029239;28;20148;-80
2023/12/12 15:16:23;;;;;;;0.20;0.20;;;;;;;;;;5020801;28;20025;-81
2023/12/12 15:18:49;;;;;;;0.30;0.30;;;;;;;;;;5023690;28;20365;-80
2023/12/12 15:21:17;;;;;;;0.10;0.10;;;;;;;;;;5028327;28;20052;-79
2023/12/12 15:23:43;;;;;;;0.50;0.43;;;;;;;;;;5020626;28;20421;-79
2023/12/12 15:26:09;;;;;;;0.45;0.45;;;;;;;;;;5031035;28;20079;-79
2023/12/12 15:28:36;;;;;;;0.30;0.30;;;;;;;;;;5025117;28;20041;-80
2023/12/12 15:31:02;;;;;;;0.40;0.40;;;;;;;;;;5024025;28;20536;-79